Turks and Caicos Islands Weather

[source: ADDS]
METAR
MBPV 012250Z 0200/0300 11012KT 9999 BKN018 BKN080 PROB40 TEMPO 0200/0204 VRB30KT 3200 TSRA BKN010CB MBGT 012250Z 0200/0300 11012KT 9999 BKN018 BKN080 PROB40 TEMPO 0200/0204 VRB30KT 3200 TSRA BKN010CB TAF
MBPV 012250Z 0200/0300 11012KT 9999 BKN018 BKN080 PROB40 TEMPO 0200/0204 VRB30KT 3200 TSRA BKN010CB =
MBGT 012250Z 0200/0300 11012KT 9999 BKN018 BKN080 PROB40 TEMPO 0200/0204 VRB30KT 3200 TSRA BKN010CB =
SR / SS: 10:22 / 23:28 UTC (MBPV 2015-08-02)
E-mail Print PDF
Weather